sensor_id;sensor_type;location;lat;lon;timestamp;P1;durP1;ratioP1;P2;durP2;ratioP2
62616;SDS011;62539;51.190;6.808;2022-12-07T00:01:23;1.25;;;1.13;;
62616;SDS011;62539;51.190;6.808;2022-12-07T00:03:54;2.30;;;1.17;;
62616;SDS011;62539;51.190;6.808;2022-12-07T00:06:34;2.10;;;1.20;;
62616;SDS011;62539;51.190;6.808;2022-12-07T00:09:12;2.15;;;1.25;;
62616;SDS011;62539;51.190;6.808;2022-12-07T00:11:40;1.35;;;1.25;;
62616;SDS011;62539;51.190;6.808;2022-12-07T00:14:07;1.92;;;1.30;;
62616;SDS011;62539;51.190;6.808;2022-12-07T00:16:38;1.77;;;1.40;;
62616;SDS011;62539;51.190;6.808;2022-12-07T00:19:04;1.85;;;1.48;;
62616;SDS011;62539;51.190;6.808;2022-12-07T00:21:30;2.70;;;1.60;;
62616;SDS011;62539;51.190;6.808;2022-12-07T00:23:58;2.65;;;1.38;;
62616;SDS011;62539;51.190;6.808;2022-12-07T00:26:26;1.73;;;1.30;;
62616;SDS011;62539;51.190;6.808;2022-12-07T00:28:59;2.63;;;1.30;;
62616;SDS011;62539;51.190;6.808;2022-12-07T00:31:32;2.20;;;1.50;;
62616;SDS011;62539;51.190;6.808;2022-12-07T00:34:04;2.40;;;1.20;;
62616;SDS011;62539;51.190;6.808;2022-12-07T00:36:38;1.45;;;1.25;;
62616;SDS011;62539;51.190;6.808;2022-12-07T00:39:03;2.97;;;1.38;;
62616;SDS011;62539;51.190;6.808;2022-12-07T00:41:29;2.15;;;1.40;;
62616;SDS011;62539;51.190;6.808;2022-12-07T00:43:55;3.70;;;1.50;;
62616;SDS011;62539;51.190;6.808;2022-12-07T00:46:21;2.38;;;1.50;;
62616;SDS011;62539;51.190;6.808;2022-12-07T00:48:48;2.70;;;1.50;;
62616;SDS011;62539;51.190;6.808;2022-12-07T00:51:16;1.85;;;1.30;;
62616;SDS011;62539;51.190;6.808;2022-12-07T00:53:45;1.50;;;1.40;;
62616;SDS011;62539;51.190;6.808;2022-12-07T00:56:12;5.63;;;1.50;;
62616;SDS011;62539;51.190;6.808;2022-12-07T00:58:40;2.85;;;1.30;;
62616;SDS011;62539;51.190;6.808;2022-12-07T01:01:06;3.58;;;1.55;;
62616;SDS011;62539;51.190;6.808;2022-12-07T01:03:34;1.38;;;1.02;;
62616;SDS011;62539;51.190;6.808;2022-12-07T01:06:00;1.50;;;1.40;;
62616;SDS011;62539;51.190;6.808;2022-12-07T01:08:26;1.70;;;1.40;;
62616;SDS011;62539;51.190;6.808;2022-12-07T01:10:59;1.73;;;1.25;;
62616;SDS011;62539;51.190;6.808;2022-12-07T01:13:30;1.73;;;1.27;;
62616;SDS011;62539;51.190;6.808;2022-12-07T01:15:58;1.65;;;1.35;;
62616;SDS011;62539;51.190;6.808;2022-12-07T01:18:26;3.25;;;1.48;;
62616;SDS011;62539;51.190;6.808;2022-12-07T01:21:15;1.75;;;1.38;;
62616;SDS011;62539;51.190;6.808;2022-12-07T01:23:45;3.50;;;1.23;;
62616;SDS011;62539;51.190;6.808;2022-12-07T01:26:12;1.85;;;1.52;;
62616;SDS011;62539;51.190;6.808;2022-12-07T01:28:41;2.13;;;1.40;;
62616;SDS011;62539;51.190;6.808;2022-12-07T01:31:08;1.70;;;1.20;;
62616;SDS011;62539;51.190;6.808;2022-12-07T01:33:38;2.03;;;1.30;;
62616;SDS011;62539;51.190;6.808;2022-12-07T01:36:08;1.67;;;1.40;;
62616;SDS011;62539;51.190;6.808;2022-12-07T01:38:45;1.95;;;1.20;;
62616;SDS011;62539;51.190;6.808;2022-12-07T01:41:12;2.75;;;1.40;;
62616;SDS011;62539;51.190;6.808;2022-12-07T01:47:01;1.80;;;1.23;;
62616;SDS011;62539;51.190;6.808;2022-12-07T01:49:35;1.98;;;1.33;;
62616;SDS011;62539;51.190;6.808;2022-12-07T01:54:38;2.38;;;1.40;;
62616;SDS011;62539;51.190;6.808;2022-12-07T01:57:04;2.03;;;1.42;;
62616;SDS011;62539;51.190;6.808;2022-12-07T01:59:33;1.83;;;1.50;;
62616;SDS011;62539;51.190;6.808;2022-12-07T02:01:59;1.30;;;1.20;;
62616;SDS011;62539;51.190;6.808;2022-12-07T02:04:32;3.13;;;1.10;;
62616;SDS011;62539;51.190;6.808;2022-12-07T02:06:58;2.38;;;1.40;;
62616;SDS011;62539;51.190;6.808;2022-12-07T02:09:24;2.45;;;1.17;;
62616;SDS011;62539;51.190;6.808;2022-12-07T02:11:50;1.40;;;1.30;;
62616;SDS011;62539;51.190;6.808;2022-12-07T02:14:17;1.55;;;1.10;;
62616;SDS011;62539;51.190;6.808;2022-12-07T02:16:45;2.38;;;1.20;;
62616;SDS011;62539;51.190;6.808;2022-12-07T02:19:30;1.40;;;1.17;;
62616;SDS011;62539;51.190;6.808;2022-12-07T02:28:56;2.47;;;1.20;;
62616;SDS011;62539;51.190;6.808;2022-12-07T02:34:07;2.22;;;1.20;;
62616;SDS011;62539;51.190;6.808;2022-12-07T02:36:46;1.27;;;1.17;;
62616;SDS011;62539;51.190;6.808;2022-12-07T02:39:28;1.45;;;1.30;;
62616;SDS011;62539;51.190;6.808;2022-12-07T02:42:13;2.53;;;1.50;;
62616;SDS011;62539;51.190;6.808;2022-12-07T02:44:51;2.38;;;1.30;;
62616;SDS011;62539;51.190;6.808;2022-12-07T02:47:17;1.63;;;1.20;;
62616;SDS011;62539;51.190;6.808;2022-12-07T02:49:49;1.45;;;1.27;;
62616;SDS011;62539;51.190;6.808;2022-12-07T02:52:16;2.42;;;1.35;;
62616;SDS011;62539;51.190;6.808;2022-12-07T02:54:41;1.35;;;1.20;;
62616;SDS011;62539;51.190;6.808;2022-12-07T03:00:18;1.27;;;1.17;;
62616;SDS011;62539;51.190;6.808;2022-12-07T03:02:58;1.45;;;1.35;;
62616;SDS011;62539;51.190;6.808;2022-12-07T03:08:30;1.52;;;1.40;;
62616;SDS011;62539;51.190;6.808;2022-12-07T03:11:09;1.35;;;1.25;;
62616;SDS011;62539;51.190;6.808;2022-12-07T03:19:26;1.90;;;1.38;;
62616;SDS011;62539;51.190;6.808;2022-12-07T03:21:56;1.00;;;1.00;;
62616;SDS011;62539;51.190;6.808;2022-12-07T03:24:29;1.52;;;1.27;;
62616;SDS011;62539;51.190;6.808;2022-12-07T03:27:05;1.10;;;1.00;;
62616;SDS011;62539;51.190;6.808;2022-12-07T03:29:43;2.45;;;1.20;;
62616;SDS011;62539;51.190;6.808;2022-12-07T03:35:05;1.30;;;1.20;;
62616;SDS011;62539;51.190;6.808;2022-12-07T03:37:48;1.80;;;1.20;;
62616;SDS011;62539;51.190;6.808;2022-12-07T03:40:30;2.83;;;1.30;;
62616;SDS011;62539;51.190;6.808;2022-12-07T03:43:22;1.35;;;1.13;;
62616;SDS011;62539;51.190;6.808;2022-12-07T03:45:58;1.40;;;1.27;;
62616;SDS011;62539;51.190;6.808;2022-12-07T03:51:50;1.42;;;1.00;;
62616;SDS011;62539;51.190;6.808;2022-12-07T03:54:17;1.75;;;1.20;;
62616;SDS011;62539;51.190;6.808;2022-12-07T03:56:48;1.30;;;1.00;;
62616;SDS011;62539;51.190;6.808;2022-12-07T03:59:15;2.08;;;1.13;;
62616;SDS011;62539;51.190;6.808;2022-12-07T04:01:43;1.92;;;1.13;;
62616;SDS011;62539;51.190;6.808;2022-12-07T04:04:10;1.38;;;1.20;;
62616;SDS011;62539;51.190;6.808;2022-12-07T04:06:36;2.60;;;1.30;;
62616;SDS011;62539;51.190;6.808;2022-12-07T04:09:02;2.30;;;1.30;;
62616;SDS011;62539;51.190;6.808;2022-12-07T04:11:27;1.27;;;1.13;;
62616;SDS011;62539;51.190;6.808;2022-12-07T04:13:53;1.73;;;1.20;;
62616;SDS011;62539;51.190;6.808;2022-12-07T04:16:37;1.17;;;1.00;;
62616;SDS011;62539;51.190;6.808;2022-12-07T04:19:02;1.60;;;1.08;;
62616;SDS011;62539;51.190;6.808;2022-12-07T04:21:28;1.02;;;0.93;;
62616;SDS011;62539;51.190;6.808;2022-12-07T04:23:53;1.20;;;1.10;;
62616;SDS011;62539;51.190;6.808;2022-12-07T04:26:19;2.03;;;1.35;;
62616;SDS011;62539;51.190;6.808;2022-12-07T04:28:44;1.45;;;1.02;;
62616;SDS011;62539;51.190;6.808;2022-12-07T04:31:09;1.10;;;1.00;;
62616;SDS011;62539;51.190;6.808;2022-12-07T04:33:35;1.35;;;1.20;;
62616;SDS011;62539;51.190;6.808;2022-12-07T04:36:01;1.95;;;1.17;;
62616;SDS011;62539;51.190;6.808;2022-12-07T04:38:27;1.33;;;1.10;;
62616;SDS011;62539;51.190;6.808;2022-12-07T04:40:52;2.45;;;1.23;;
62616;SDS011;62539;51.190;6.808;2022-12-07T04:43:17;1.17;;;1.00;;
62616;SDS011;62539;51.190;6.808;2022-12-07T04:45:49;1.33;;;1.13;;
62616;SDS011;62539;51.190;6.808;2022-12-07T04:48:16;1.10;;;1.00;;
62616;SDS011;62539;51.190;6.808;2022-12-07T04:50:41;1.38;;;1.20;;
62616;SDS011;62539;51.190;6.808;2022-12-07T04:53:06;1.20;;;1.10;;
62616;SDS011;62539;51.190;6.808;2022-12-07T04:55:32;2.05;;;1.30;;
62616;SDS011;62539;51.190;6.808;2022-12-07T04:57:57;1.58;;;1.13;;
62616;SDS011;62539;51.190;6.808;2022-12-07T05:00:23;1.23;;;1.00;;
62616;SDS011;62539;51.190;6.808;2022-12-07T05:02:48;1.50;;;1.33;;
62616;SDS011;62539;51.190;6.808;2022-12-07T05:05:13;1.13;;;1.00;;
62616;SDS011;62539;51.190;6.808;2022-12-07T05:07:39;1.65;;;1.13;;
62616;SDS011;62539;51.190;6.808;2022-12-07T05:10:05;1.40;;;1.00;;
62616;SDS011;62539;51.190;6.808;2022-12-07T05:12:31;1.98;;;1.10;;
62616;SDS011;62539;51.190;6.808;2022-12-07T05:14:56;1.75;;;1.30;;
62616;SDS011;62539;51.190;6.808;2022-12-07T05:17:21;1.40;;;1.10;;
62616;SDS011;62539;51.190;6.808;2022-12-07T05:19:47;1.20;;;1.10;;
62616;SDS011;62539;51.190;6.808;2022-12-07T05:22:12;1.25;;;0.98;;
62616;SDS011;62539;51.190;6.808;2022-12-07T05:24:39;2.22;;;1.00;;
62616;SDS011;62539;51.190;6.808;2022-12-07T05:27:04;1.58;;;1.08;;
62616;SDS011;62539;51.190;6.808;2022-12-07T05:29:29;1.90;;;1.30;;
62616;SDS011;62539;51.190;6.808;2022-12-07T05:31:55;0.88;;;0.80;;
62616;SDS011;62539;51.190;6.808;2022-12-07T05:34:20;1.60;;;1.00;;
62616;SDS011;62539;51.190;6.808;2022-12-07T05:36:46;0.90;;;0.80;;
62616;SDS011;62539;51.190;6.808;2022-12-07T05:39:11;2.05;;;1.00;;
62616;SDS011;62539;51.190;6.808;2022-12-07T05:41:37;1.63;;;0.95;;
62616;SDS011;62539;51.190;6.808;2022-12-07T05:44:21;1.48;;;1.08;;
62616;SDS011;62539;51.190;6.808;2022-12-07T05:46:46;0.85;;;0.82;;
62616;SDS011;62539;51.190;6.808;2022-12-07T05:49:12;1.52;;;0.98;;
62616;SDS011;62539;51.190;6.808;2022-12-07T05:51:37;1.15;;;0.90;;
62616;SDS011;62539;51.190;6.808;2022-12-07T05:54:02;1.75;;;1.05;;
62616;SDS011;62539;51.190;6.808;2022-12-07T05:56:28;1.20;;;1.10;;
62616;SDS011;62539;51.190;6.808;2022-12-07T05:58:54;1.00;;;0.90;;
62616;SDS011;62539;51.190;6.808;2022-12-07T06:01:37;1.70;;;1.10;;
62616;SDS011;62539;51.190;6.808;2022-12-07T06:04:03;1.02;;;0.90;;
62616;SDS011;62539;51.190;6.808;2022-12-07T06:06:28;1.02;;;0.90;;
62616;SDS011;62539;51.190;6.808;2022-12-07T06:08:54;0.93;;;0.90;;
62616;SDS011;62539;51.190;6.808;2022-12-07T06:11:19;0.93;;;0.90;;
62616;SDS011;62539;51.190;6.808;2022-12-07T06:14:03;2.55;;;1.10;;
62616;SDS011;62539;51.190;6.808;2022-12-07T06:16:29;5.55;;;1.33;;
62616;SDS011;62539;51.190;6.808;2022-12-07T06:18:54;1.10;;;0.90;;
62616;SDS011;62539;51.190;6.808;2022-12-07T06:21:20;3.40;;;1.30;;
62616;SDS011;62539;51.190;6.808;2022-12-07T06:23:45;3.13;;;1.48;;
62616;SDS011;62539;51.190;6.808;2022-12-07T06:26:12;3.45;;;1.60;;
62616;SDS011;62539;51.190;6.808;2022-12-07T06:28:38;3.72;;;1.33;;
62616;SDS011;62539;51.190;6.808;2022-12-07T06:31:03;2.78;;;1.08;;
62616;SDS011;62539;51.190;6.808;2022-12-07T06:33:29;3.95;;;1.13;;
62616;SDS011;62539;51.190;6.808;2022-12-07T06:35:54;5.03;;;1.10;;
62616;SDS011;62539;51.190;6.808;2022-12-07T06:38:20;4.47;;;1.17;;
62616;SDS011;62539;51.190;6.808;2022-12-07T06:40:45;1.60;;;0.80;;
62616;SDS011;62539;51.190;6.808;2022-12-07T06:43:11;6.47;;;1.25;;
62616;SDS011;62539;51.190;6.808;2022-12-07T06:45:36;1.92;;;1.00;;
62616;SDS011;62539;51.190;6.808;2022-12-07T06:48:02;2.90;;;1.00;;
62616;SDS011;62539;51.190;6.808;2022-12-07T06:50:27;5.13;;;1.05;;
62616;SDS011;62539;51.190;6.808;2022-12-07T06:52:53;1.13;;;0.90;;
62616;SDS011;62539;51.190;6.808;2022-12-07T06:55:18;1.77;;;1.20;;
62616;SDS011;62539;51.190;6.808;2022-12-07T06:57:43;2.47;;;1.10;;
62616;SDS011;62539;51.190;6.808;2022-12-07T07:00:09;7.57;;;1.05;;
62616;SDS011;62539;51.190;6.808;2022-12-07T07:02:35;3.53;;;1.13;;
62616;SDS011;62539;51.190;6.808;2022-12-07T07:05:01;1.67;;;1.10;;
62616;SDS011;62539;51.190;6.808;2022-12-07T07:07:27;2.33;;;1.10;;
62616;SDS011;62539;51.190;6.808;2022-12-07T07:09:53;1.33;;;1.05;;
62616;SDS011;62539;51.190;6.808;2022-12-07T07:12:18;3.60;;;0.82;;
62616;SDS011;62539;51.190;6.808;2022-12-07T07:14:44;3.88;;;1.10;;
62616;SDS011;62539;51.190;6.808;2022-12-07T07:17:09;2.65;;;1.17;;
62616;SDS011;62539;51.190;6.808;2022-12-07T07:19:34;1.33;;;0.88;;
62616;SDS011;62539;51.190;6.808;2022-12-07T07:22:00;2.00;;;1.05;;
62616;SDS011;62539;51.190;6.808;2022-12-07T07:24:25;1.30;;;0.90;;
62616;SDS011;62539;51.190;6.808;2022-12-07T07:26:51;1.65;;;1.10;;
62616;SDS011;62539;51.190;6.808;2022-12-07T07:29:16;1.10;;;0.85;;
62616;SDS011;62539;51.190;6.808;2022-12-07T07:31:41;2.17;;;1.08;;
62616;SDS011;62539;51.190;6.808;2022-12-07T07:34:07;2.85;;;1.20;;
62616;SDS011;62539;51.190;6.808;2022-12-07T07:36:32;1.70;;;1.00;;
62616;SDS011;62539;51.190;6.808;2022-12-07T07:38:58;2.55;;;1.13;;
62616;SDS011;62539;51.190;6.808;2022-12-07T07:41:23;1.92;;;1.00;;
62616;SDS011;62539;51.190;6.808;2022-12-07T07:43:48;2.67;;;1.10;;
62616;SDS011;62539;51.190;6.808;2022-12-07T07:46:14;1.00;;;0.90;;
62616;SDS011;62539;51.190;6.808;2022-12-07T07:48:39;4.80;;;1.00;;
62616;SDS011;62539;51.190;6.808;2022-12-07T07:51:05;1.27;;;1.17;;
62616;SDS011;62539;51.190;6.808;2022-12-07T07:53:32;0.90;;;0.80;;
62616;SDS011;62539;51.190;6.808;2022-12-07T07:55:58;3.72;;;0.95;;
62616;SDS011;62539;51.190;6.808;2022-12-07T07:58:23;1.55;;;1.10;;
62616;SDS011;62539;51.190;6.808;2022-12-07T08:00:49;1.75;;;1.00;;
62616;SDS011;62539;51.190;6.808;2022-12-07T08:03:14;1.80;;;0.95;;
62616;SDS011;62539;51.190;6.808;2022-12-07T08:05:40;3.08;;;0.80;;
62616;SDS011;62539;51.190;6.808;2022-12-07T08:08:05;1.33;;;0.93;;
62616;SDS011;62539;51.190;6.808;2022-12-07T08:10:31;1.90;;;0.80;;
62616;SDS011;62539;51.190;6.808;2022-12-07T08:12:57;2.33;;;1.05;;
62616;SDS011;62539;51.190;6.808;2022-12-07T08:15:45;2.08;;;0.90;;
62616;SDS011;62539;51.190;6.808;2022-12-07T08:18:13;3.55;;;1.05;;
62616;SDS011;62539;51.190;6.808;2022-12-07T08:20:40;2.45;;;1.00;;
62616;SDS011;62539;51.190;6.808;2022-12-07T08:23:07;1.08;;;0.80;;
62616;SDS011;62539;51.190;6.808;2022-12-07T08:25:35;1.73;;;0.80;;
62616;SDS011;62539;51.190;6.808;2022-12-07T08:28:01;2.40;;;0.90;;
62616;SDS011;62539;51.190;6.808;2022-12-07T08:30:27;1.80;;;0.95;;
62616;SDS011;62539;51.190;6.808;2022-12-07T08:32:54;3.72;;;0.80;;
62616;SDS011;62539;51.190;6.808;2022-12-07T08:35:21;0.98;;;0.63;;
62616;SDS011;62539;51.190;6.808;2022-12-07T08:37:46;1.05;;;0.82;;
62616;SDS011;62539;51.190;6.808;2022-12-07T08:40:12;1.45;;;0.80;;
62616;SDS011;62539;51.190;6.808;2022-12-07T08:42:43;1.17;;;1.00;;
62616;SDS011;62539;51.190;6.808;2022-12-07T08:45:16;1.10;;;0.93;;
62616;SDS011;62539;51.190;6.808;2022-12-07T08:47:49;1.05;;;0.82;;
62616;SDS011;62539;51.190;6.808;2022-12-07T08:50:27;2.40;;;0.93;;
62616;SDS011;62539;51.190;6.808;2022-12-07T08:52:54;1.25;;;1.00;;
62616;SDS011;62539;51.190;6.808;2022-12-07T08:55:23;2.50;;;1.00;;
62616;SDS011;62539;51.190;6.808;2022-12-07T08:57:49;1.13;;;0.80;;
62616;SDS011;62539;51.190;6.808;2022-12-07T09:00:16;1.90;;;0.90;;
62616;SDS011;62539;51.190;6.808;2022-12-07T09:02:42;1.70;;;0.88;;
62616;SDS011;62539;51.190;6.808;2022-12-07T09:05:10;1.17;;;0.80;;
62616;SDS011;62539;51.190;6.808;2022-12-07T09:07:36;1.45;;;0.90;;
62616;SDS011;62539;51.190;6.808;2022-12-07T09:10:03;2.30;;;1.00;;
62616;SDS011;62539;51.190;6.808;2022-12-07T09:12:30;0.80;;;0.77;;
62616;SDS011;62539;51.190;6.808;2022-12-07T09:14:55;0.90;;;0.90;;
62616;SDS011;62539;51.190;6.808;2022-12-07T09:17:21;1.52;;;1.00;;
62616;SDS011;62539;51.190;6.808;2022-12-07T09:19:46;1.95;;;0.80;;
62616;SDS011;62539;51.190;6.808;2022-12-07T09:22:12;1.65;;;0.88;;
62616;SDS011;62539;51.190;6.808;2022-12-07T09:24:37;1.27;;;1.00;;
62616;SDS011;62539;51.190;6.808;2022-12-07T09:27:03;1.80;;;0.73;;
62616;SDS011;62539;51.190;6.808;2022-12-07T09:29:28;2.10;;;0.95;;
62616;SDS011;62539;51.190;6.808;2022-12-07T09:31:53;0.80;;;0.80;;
62616;SDS011;62539;51.190;6.808;2022-12-07T09:34:19;1.00;;;0.90;;
62616;SDS011;62539;51.190;6.808;2022-12-07T09:36:45;1.42;;;0.80;;
62616;SDS011;62539;51.190;6.808;2022-12-07T09:39:10;1.33;;;0.80;;
62616;SDS011;62539;51.190;6.808;2022-12-07T09:41:37;0.73;;;0.63;;
62616;SDS011;62539;51.190;6.808;2022-12-07T09:44:09;1.42;;;0.77;;
62616;SDS011;62539;51.190;6.808;2022-12-07T09:46:39;0.93;;;0.82;;
62616;SDS011;62539;51.190;6.808;2022-12-07T09:49:14;1.33;;;0.80;;
62616;SDS011;62539;51.190;6.808;2022-12-07T09:51:47;1.43;;;0.80;;
62616;SDS011;62539;51.190;6.808;2022-12-07T09:54:29;0.70;;;0.70;;
62616;SDS011;62539;51.190;6.808;2022-12-07T09:56:55;2.38;;;1.17;;
62616;SDS011;62539;51.190;6.808;2022-12-07T09:59:21;0.98;;;0.85;;
62616;SDS011;62539;51.190;6.808;2022-12-07T10:01:48;1.13;;;0.85;;
62616;SDS011;62539;51.190;6.808;2022-12-07T10:04:16;0.85;;;0.70;;
62616;SDS011;62539;51.190;6.808;2022-12-07T10:06:48;2.83;;;1.10;;
62616;SDS011;62539;51.190;6.808;2022-12-07T10:09:16;1.42;;;0.82;;
62616;SDS011;62539;51.190;6.808;2022-12-07T10:12:04;1.90;;;0.80;;
62616;SDS011;62539;51.190;6.808;2022-12-07T10:14:36;1.33;;;0.85;;
62616;SDS011;62539;51.190;6.808;2022-12-07T10:17:30;1.10;;;0.90;;
62616;SDS011;62539;51.190;6.808;2022-12-07T10:20:20;1.08;;;1.00;;
62616;SDS011;62539;51.190;6.808;2022-12-07T10:22:56;1.52;;;1.00;;
62616;SDS011;62539;51.190;6.808;2022-12-07T10:25:30;1.45;;;0.82;;
62616;SDS011;62539;51.190;6.808;2022-12-07T10:28:00;1.60;;;0.88;;
62616;SDS011;62539;51.190;6.808;2022-12-07T10:30:45;2.22;;;1.08;;
62616;SDS011;62539;51.190;6.808;2022-12-07T10:34:12;2.08;;;1.00;;
62616;SDS011;62539;51.190;6.808;2022-12-07T10:36:26;1.63;;;0.85;;
62616;SDS011;62539;51.190;6.808;2022-12-07T10:39:03;2.88;;;0.90;;
62616;SDS011;62539;51.190;6.808;2022-12-07T10:44:28;2.50;;;1.15;;
62616;SDS011;62539;51.190;6.808;2022-12-07T10:47:00;1.58;;;0.70;;
62616;SDS011;62539;51.190;6.808;2022-12-07T10:52:40;0.98;;;0.70;;
62616;SDS011;62539;51.190;6.808;2022-12-07T10:55:23;1.90;;;1.00;;
62616;SDS011;62539;51.190;6.808;2022-12-07T10:58:27;0.85;;;0.75;;
62616;SDS011;62539;51.190;6.808;2022-12-07T11:01:29;1.75;;;0.80;;
62616;SDS011;62539;51.190;6.808;2022-12-07T11:10:34;2.22;;;0.70;;
62616;SDS011;62539;51.190;6.808;2022-12-07T11:16:42;1.15;;;0.80;;
62616;SDS011;62539;51.190;6.808;2022-12-07T11:25:10;2.00;;;1.05;;
62616;SDS011;62539;51.190;6.808;2022-12-07T11:28:13;6.43;;;1.17;;
62616;SDS011;62539;51.190;6.808;2022-12-07T11:31:18;1.27;;;0.80;;
62616;SDS011;62539;51.190;6.808;2022-12-07T11:36:56;1.52;;;0.80;;
62616;SDS011;62539;51.190;6.808;2022-12-07T11:41:48;1.75;;;0.80;;
62616;SDS011;62539;51.190;6.808;2022-12-07T11:45:22;0.70;;;0.70;;
62616;SDS011;62539;51.190;6.808;2022-12-07T11:47:30;1.35;;;0.95;;
62616;SDS011;62539;51.190;6.808;2022-12-07T11:50:23;3.42;;;0.93;;
62616;SDS011;62539;51.190;6.808;2022-12-07T11:53:04;1.00;;;0.70;;
62616;SDS011;62539;51.190;6.808;2022-12-07T11:55:43;2.55;;;0.70;;
62616;SDS011;62539;51.190;6.808;2022-12-07T12:03:47;1.23;;;0.75;;
62616;SDS011;62539;51.190;6.808;2022-12-07T12:06:17;2.53;;;0.77;;
62616;SDS011;62539;51.190;6.808;2022-12-07T12:08:53;1.17;;;0.80;;
62616;SDS011;62539;51.190;6.808;2022-12-07T12:20:39;0.85;;;0.82;;
62616;SDS011;62539;51.190;6.808;2022-12-07T12:26:22;1.98;;;0.70;;
62616;SDS011;62539;51.190;6.808;2022-12-07T12:28:57;0.85;;;0.70;;
62616;SDS011;62539;51.190;6.808;2022-12-07T12:34:03;1.38;;;0.63;;
62616;SDS011;62539;51.190;6.808;2022-12-07T12:36:55;0.75;;;0.63;;
62616;SDS011;62539;51.190;6.808;2022-12-07T12:39:20;1.50;;;0.70;;
62616;SDS011;62539;51.190;6.808;2022-12-07T12:46:46;0.90;;;0.70;;
62616;SDS011;62539;51.190;6.808;2022-12-07T12:54:19;0.70;;;0.50;;
62616;SDS011;62539;51.190;6.808;2022-12-07T13:02:21;0.83;;;0.50;;
62616;SDS011;62539;51.190;6.808;2022-12-07T13:04:53;1.15;;;0.70;;
62616;SDS011;62539;51.190;6.808;2022-12-07T13:12:58;0.47;;;0.47;;
62616;SDS011;62539;51.190;6.808;2022-12-07T13:39:53;0.88;;;0.68;;
62616;SDS011;62539;51.190;6.808;2022-12-07T13:42:29;1.23;;;0.93;;
62616;SDS011;62539;51.190;6.808;2022-12-07T13:44:57;10.65;;;0.82;;
62616;SDS011;62539;51.190;6.808;2022-12-07T13:47:36;1.48;;;0.68;;
62616;SDS011;62539;51.190;6.808;2022-12-07T13:50:23;1.58;;;0.93;;
62616;SDS011;62539;51.190;6.808;2022-12-07T13:52:57;4.03;;;0.80;;
62616;SDS011;62539;51.190;6.808;2022-12-07T13:55:26;1.77;;;0.80;;
62616;SDS011;62539;51.190;6.808;2022-12-07T13:57:53;1.17;;;0.70;;
62616;SDS011;62539;51.190;6.808;2022-12-07T14:02:56;3.80;;;0.95;;
62616;SDS011;62539;51.190;6.808;2022-12-07T14:05:27;0.65;;;0.60;;
62616;SDS011;62539;51.190;6.808;2022-12-07T14:07:59;6.13;;;0.90;;
62616;SDS011;62539;51.190;6.808;2022-12-07T14:16:00;2.75;;;1.13;;
62616;SDS011;62539;51.190;6.808;2022-12-07T14:21:03;2.17;;;0.77;;
62616;SDS011;62539;51.190;6.808;2022-12-07T14:23:40;1.38;;;0.73;;
62616;SDS011;62539;51.190;6.808;2022-12-07T14:26:15;1.73;;;0.70;;
62616;SDS011;62539;51.190;6.808;2022-12-07T14:28:45;1.05;;;0.60;;
62616;SDS011;62539;51.190;6.808;2022-12-07T14:31:16;1.20;;;0.70;;
62616;SDS011;62539;51.190;6.808;2022-12-07T14:33:46;0.90;;;0.77;;
62616;SDS011;62539;51.190;6.808;2022-12-07T14:36:12;0.63;;;0.60;;
62616;SDS011;62539;51.190;6.808;2022-12-07T14:38:39;1.13;;;0.77;;
62616;SDS011;62539;51.190;6.808;2022-12-07T14:41:06;1.35;;;0.85;;
62616;SDS011;62539;51.190;6.808;2022-12-07T14:43:59;0.80;;;0.70;;
62616;SDS011;62539;51.190;6.808;2022-12-07T14:46:25;3.00;;;0.70;;
62616;SDS011;62539;51.190;6.808;2022-12-07T14:48:51;1.10;;;0.65;;
62616;SDS011;62539;51.190;6.808;2022-12-07T14:51:16;3.47;;;0.70;;
62616;SDS011;62539;51.190;6.808;2022-12-07T14:53:43;0.80;;;0.70;;
62616;SDS011;62539;51.190;6.808;2022-12-07T14:56:13;3.80;;;0.90;;
62616;SDS011;62539;51.190;6.808;2022-12-07T14:58:39;1.52;;;0.82;;
62616;SDS011;62539;51.190;6.808;2022-12-07T15:01:05;0.95;;;0.60;;
62616;SDS011;62539;51.190;6.808;2022-12-07T15:03:31;0.57;;;0.50;;
62616;SDS011;62539;51.190;6.808;2022-12-07T15:05:59;0.88;;;0.60;;
62616;SDS011;62539;51.190;6.808;2022-12-07T15:08:24;1.85;;;0.63;;
62616;SDS011;62539;51.190;6.808;2022-12-07T15:10:50;1.00;;;0.57;;
62616;SDS011;62539;51.190;6.808;2022-12-07T15:13:15;1.25;;;0.90;;
62616;SDS011;62539;51.190;6.808;2022-12-07T15:15:59;0.77;;;0.73;;
62616;SDS011;62539;51.190;6.808;2022-12-07T15:18:25;0.68;;;0.63;;
62616;SDS011;62539;51.190;6.808;2022-12-07T15:20:50;1.27;;;0.80;;
62616;SDS011;62539;51.190;6.808;2022-12-07T15:23:16;1.48;;;0.75;;
62616;SDS011;62539;51.190;6.808;2022-12-07T15:25:43;0.87;;;0.67;;
62616;SDS011;62539;51.190;6.808;2022-12-07T15:28:11;0.55;;;0.50;;
62616;SDS011;62539;51.190;6.808;2022-12-07T15:30:37;5.88;;;0.60;;
62616;SDS011;62539;51.190;6.808;2022-12-07T15:33:05;0.57;;;0.50;;
62616;SDS011;62539;51.190;6.808;2022-12-07T15:35:30;5.25;;;0.82;;
62616;SDS011;62539;51.190;6.808;2022-12-07T15:37:55;0.60;;;0.50;;
62616;SDS011;62539;51.190;6.808;2022-12-07T15:40:21;1.45;;;0.68;;
62616;SDS011;62539;51.190;6.808;2022-12-07T15:42:46;2.33;;;0.90;;
62616;SDS011;62539;51.190;6.808;2022-12-07T15:45:12;0.80;;;0.60;;
62616;SDS011;62539;51.190;6.808;2022-12-07T15:47:39;1.05;;;0.70;;
62616;SDS011;62539;51.190;6.808;2022-12-07T15:50:08;5.47;;;0.70;;
62616;SDS011;62539;51.190;6.808;2022-12-07T15:52:38;3.38;;;0.80;;
62616;SDS011;62539;51.190;6.808;2022-12-07T15:55:04;1.77;;;0.80;;
62616;SDS011;62539;51.190;6.808;2022-12-07T15:57:30;2.65;;;0.90;;
62616;SDS011;62539;51.190;6.808;2022-12-07T15:59:56;1.45;;;0.75;;
62616;SDS011;62539;51.190;6.808;2022-12-07T16:02:22;2.83;;;0.88;;
62616;SDS011;62539;51.190;6.808;2022-12-07T16:04:49;1.27;;;1.00;;
62616;SDS011;62539;51.190;6.808;2022-12-07T16:07:15;3.22;;;0.77;;
62616;SDS011;62539;51.190;6.808;2022-12-07T16:09:42;2.35;;;0.90;;
62616;SDS011;62539;51.190;6.808;2022-12-07T16:12:08;2.55;;;0.90;;
62616;SDS011;62539;51.190;6.808;2022-12-07T16:14:35;3.17;;;1.02;;
62616;SDS011;62539;51.190;6.808;2022-12-07T16:17:02;2.10;;;0.85;;
62616;SDS011;62539;51.190;6.808;2022-12-07T16:19:29;3.05;;;0.90;;
62616;SDS011;62539;51.190;6.808;2022-12-07T16:21:55;1.05;;;0.80;;
62616;SDS011;62539;51.190;6.808;2022-12-07T16:24:21;6.28;;;1.05;;
62616;SDS011;62539;51.190;6.808;2022-12-07T16:26:47;7.43;;;1.08;;
62616;SDS011;62539;51.190;6.808;2022-12-07T16:29:13;1.98;;;1.10;;
62616;SDS011;62539;51.190;6.808;2022-12-07T16:31:39;2.33;;;0.82;;
62616;SDS011;62539;51.190;6.808;2022-12-07T16:34:05;2.38;;;0.93;;
62616;SDS011;62539;51.190;6.808;2022-12-07T16:36:32;1.27;;;0.80;;
62616;SDS011;62539;51.190;6.808;2022-12-07T16:38:58;4.38;;;1.00;;
62616;SDS011;62539;51.190;6.808;2022-12-07T16:41:25;2.80;;;0.95;;
62616;SDS011;62539;51.190;6.808;2022-12-07T16:43:51;2.13;;;0.77;;
62616;SDS011;62539;51.190;6.808;2022-12-07T16:46:16;1.75;;;0.75;;
62616;SDS011;62539;51.190;6.808;2022-12-07T16:48:43;1.85;;;0.95;;
62616;SDS011;62539;51.190;6.808;2022-12-07T16:51:10;2.67;;;0.80;;
62616;SDS011;62539;51.190;6.808;2022-12-07T16:53:39;2.28;;;0.90;;
62616;SDS011;62539;51.190;6.808;2022-12-07T16:56:14;2.20;;;0.80;;
62616;SDS011;62539;51.190;6.808;2022-12-07T16:58:41;2.35;;;0.90;;
62616;SDS011;62539;51.190;6.808;2022-12-07T17:01:14;5.07;;;0.95;;
62616;SDS011;62539;51.190;6.808;2022-12-07T17:03:43;2.17;;;0.90;;
62616;SDS011;62539;51.190;6.808;2022-12-07T17:06:11;2.00;;;0.73;;
62616;SDS011;62539;51.190;6.808;2022-12-07T17:08:44;2.83;;;1.17;;
62616;SDS011;62539;51.190;6.808;2022-12-07T17:11:17;1.73;;;0.90;;
62616;SDS011;62539;51.190;6.808;2022-12-07T17:13:47;0.82;;;0.82;;
62616;SDS011;62539;51.190;6.808;2022-12-07T17:16:31;1.48;;;0.70;;
62616;SDS011;62539;51.190;6.808;2022-12-07T17:18:57;1.02;;;0.85;;
62616;SDS011;62539;51.190;6.808;2022-12-07T17:21:23;4.07;;;1.15;;